Map

Track Data

SID SEASON NUMBER BASIN SUBBASIN NAME ISO_TIME NATURE LAT LON WMO_WIND WMO_PRES WMO_AGENCY TRACK_TYPE DIST2LAND LANDFALL IFLAG USA_AGENCY USA_ATCF_ID USA_LAT USA_LON USA_RECORD USA_STATUS USA_WIND USA_PRES USA_SSHS USA_R34_NE USA_R34_SE USA_R34_SW USA_R34_NW USA_R50_NE USA_R50_SE USA_R50_SW USA_R50_NW USA_R64_NE USA_R64_SE USA_R64_SW USA_R64_NW USA_POCI USA_ROCI USA_RMW USA_EYE TOKYO_LAT TOKYO_LON TOKYO_GRADE TOKYO_WIND TOKYO_PRES TOKYO_R50_DIR TOKYO_R50_LONG TOKYO_R50_SHORT TOKYO_R30_DIR TOKYO_R30_LONG TOKYO_R30_SHORT TOKYO_LAND CMA_LAT CMA_LON CMA_CAT CMA_WIND CMA_PRES HKO_LAT HKO_LON HKO_CAT HKO_WIND HKO_PRES NEWDELHI_LAT NEWDELHI_LON NEWDELHI_GRADE NEWDELHI_WIND NEWDELHI_PRES NEWDELHI_CI NEWDELHI_DP NEWDELHI_POCI REUNION_LAT REUNION_LON REUNION_TYPE REUNION_WIND REUNION_PRES REUNION_TNUM REUNION_CI REUNION_RMW REUNION_R34_NE REUNION_R34_SE REUNION_R34_SW REUNION_R34_NW REUNION_R50_NE REUNION_R50_SE REUNION_R50_SW REUNION_R50_NW REUNION_R64_NE REUNION_R64_SE REUNION_R64_SW REUNION_R64_NW BOM_LAT BOM_LON BOM_TYPE BOM_WIND BOM_PRES BOM_TNUM BOM_CI BOM_RMW BOM_R34_NE BOM_R34_SE BOM_R34_SW BOM_R34_NW BOM_R50_NE BOM_R50_SE BOM_R50_SW BOM_R50_NW BOM_R64_NE BOM_R64_SE BOM_R64_SW BOM_R64_NW BOM_ROCI BOM_POCI BOM_EYE BOM_POS_METHOD BOM_PRES_METHOD NADI_LAT NADI_LON NADI_CAT NADI_WIND NADI_PRES WELLINGTON_LAT WELLINGTON_LON WELLINGTON_WIND WELLINGTON_PRES DS824_LAT DS824_LON DS824_STAGE DS824_WIND DS824_PRES TD9636_LAT TD9636_LON TD9636_STAGE TD9636_WIND TD9636_PRES TD9635_LAT TD9635_LON TD9635_WIND TD9635_PRES TD9635_ROCI NEUMANN_LAT NEUMANN_LON NEUMANN_CLASS NEUMANN_WIND NEUMANN_PRES MLC_LAT MLC_LON MLC_CLASS MLC_WIND MLC_PRES USA_GUST BOM_GUST BOM_GUST_PER REUNION_GUST REUNION_GUST_PER USA_SEAHGT USA_SEARAD_NE USA_SEARAD_SE USA_SEARAD_SW USA_SEARAD_NW STORM_SPEED STORM_DIR
1956151N16256 1956 42 EP MM NOT_NAMED 1956-05-30 00:00:00 TS 15.9000 -104.000 45 hurdat_epa main 271 271 O________OO___ hurdat_epa EP021956 15.9000 -104.000 TS 45 0 15.9000 -104.000 TC 45 15.9000 -104.000 4 5 258
1956151N16256 1956 42 EP MM NOT_NAMED 1956-05-30 03:00:00 TS 15.8496 -104.247 main 288 288 P________PP___ EP021956 15.8525 -104.238 TS 45 0 15.8525 -104.238 TC 45 15.8378 -104.285 4 5 258
1956151N16256 1956 42 EP MM NOT_NAMED 1956-05-30 06:00:00 TS 15.7961 -104.513 45 hurdat_epa main 299 299 O________OP___ hurdat_epa EP021956 15.8000 -104.500 TS 45 0 15.8000 -104.500 TC 45 15.7804 -104.565 4 6 259
1956151N16256 1956 42 EP MM NOT_NAMED 1956-05-30 09:00:00 TS 15.7406 -104.808 main 322 322 P________PP___ EP021956 15.7425 -104.800 TS 45 0 15.7425 -104.800 TC 45 15.7327 -104.838 4 6 260
1956151N16256 1956 42 EP MM NOT_NAMED 1956-05-30 12:00:00 TS 15.7000 -105.100 45 hurdat_epa main 337 337 O________OO___ hurdat_epa EP021956 15.7000 -105.100 TS 45 0 15.7000 -105.100 TC 45 15.7000 -105.100 4 5 265
1956151N16256 1956 42 EP MM NOT_NAMED 1956-05-30 15:00:00 TS 15.6910 -105.356 main 354 354 P________PP___ EP021956 15.6924 -105.357 TS 45 0 15.6924 -105.357 TC 45 15.6854 -105.349 4 5 270
1956151N16256 1956 42 EP MM NOT_NAMED 1956-05-30 18:00:00 TS 15.6969 -105.598 45 hurdat_epa main 366 366 O________OP___ hurdat_epa EP021956 15.7000 -105.600 TS 45 0 15.7000 -105.600 TC 45 15.6847 -105.592 4 5 271
1956151N16256 1956 42 EP MM NOT_NAMED 1956-05-30 21:00:00 TS 15.6983 -105.842 main 380 380 P________PP___ EP021956 15.6999 -105.843 TS 45 0 15.6999 -105.843 TC 45 15.6917 -105.840 4 5 270
1956151N16256 1956 42 EP MM NOT_NAMED 1956-05-31 00:00:00 TS 15.7000 -106.100 45 hurdat_epa main 401 401 O________OO___ hurdat_epa EP021956 15.7000 -106.100 TS 45 0 15.7000 -106.100 TC 45 15.7000 -106.100 4 5 270
1956151N16256 1956 42 EP MM NOT_NAMED 1956-05-31 03:00:00 TS 15.7000 -106.394 main 424 424 P________PP___ EP021956 15.7000 -106.393 TS 45 0 15.7000 -106.393 TC 45 15.7001 -106.398 4 6 270
1956151N16256 1956 42 EP MM NOT_NAMED 1956-05-31 06:00:00 TS 15.7000 -106.701 45 hurdat_epa main 440 440 O________OP___ hurdat_epa EP021956 15.7000 -106.700 TS 45 0 15.7000 -106.700 TC 45 15.7001 -106.708 4 6 270
1956151N16256 1956 42 EP MM NOT_NAMED 1956-05-31 09:00:00 TS 15.7000 -107.009 main 455 455 P________PP___ EP021956 15.7000 -107.008 TS 45 0 15.7000 -107.008 TC 45 15.7001 -107.013 4 6 270
1956151N16256 1956 42 EP MM NOT_NAMED 1956-05-31 12:00:00 TS 15.7000 -107.300 45 hurdat_epa main 472 472 O________OO___ hurdat_epa EP021956 15.7000 -107.300 TS 45 0 15.7000 -107.300 TC 45 15.7000 -107.300 4 5 270
1956151N16256 1956 42 EP MM NOT_NAMED 1956-05-31 15:00:00 TS 15.6991 -107.560 main 491 491 P________PP___ EP021956 15.7000 -107.565 TS 45 0 15.7000 -107.565 TC 45 15.6957 -107.538 4 5 270
1956151N16256 1956 42 EP MM NOT_NAMED 1956-05-31 18:00:00 TS 15.6984 -107.792 45 hurdat_epa main 504 504 O________OP___ hurdat_epa EP021956 15.7000 -107.800 TS 45 0 15.7000 -107.800 TC 45 15.6922 -107.758 4 4 270
1956151N16256 1956 42 EP MM NOT_NAMED 1956-05-31 21:00:00 TS 15.6984 -107.989 main 518 518 P________PP___ EP021956 15.6999 -107.993 TS 45 0 15.6999 -107.993 TC 45 15.6926 -107.973 4 4 270
1956151N16256 1956 42 EP MM NOT_NAMED 1956-06-01 00:00:00 TS 15.7000 -108.200 45 hurdat_epa main 532 532 O________OO___ hurdat_epa EP021956 15.7000 -108.200 TS 45 0 15.7000 -108.200 TC 45 15.7000 -108.200 4 5 270
1956151N16256 1956 42 EP MM NOT_NAMED 1956-06-01 03:00:00 TS 15.6984 -108.483 main 554 554 P________PP___ EP021956 15.6925 -108.493 TS 45 0 15.6925 -108.493 TC 45 15.7217 -108.444 4 6 271
1956151N16256 1956 42 EP MM NOT_NAMED 1956-06-01 06:00:00 TS 15.7099 -108.781 45 hurdat_epa main 577 577 O________OP___ hurdat_epa EP021956 15.7000 -108.800 TS 45 0 15.7000 -108.800 TC 45 15.7497 -108.705 4 5 276
1956151N16256 1956 42 EP MM NOT_NAMED 1956-06-01 09:00:00 TS 15.7555 -109.026 main 584 584 P________PP___ EP021956 15.7499 -109.035 TS 45 0 15.7499 -109.035 TC 45 15.7779 -108.988 4 5 280
1956151N16256 1956 42 EP MM NOT_NAMED 1956-06-01 12:00:00 TS 15.8000 -109.300 45 hurdat_epa main 608 608 O________OO___ hurdat_epa EP021956 15.8000 -109.300 TS 45 0 15.8000 -109.300 TC 45 15.8000 -109.300 4 6 274
1956151N16256 1956 42 EP MM NOT_NAMED 1956-06-01 15:00:00 TS 15.8043 -109.679 main 638 638 P________PP___ EP021956 15.8076 -109.685 TS 45 0 15.8076 -109.685 TC 45 15.7911 -109.655 4 8 270
1956151N16256 1956 42 EP MM NOT_NAMED 1956-06-01 18:00:00 TS 15.7955 -110.087 45 hurdat_epa main 669 669 O________OP___ hurdat_epa EP021956 15.8000 -110.100 TS 45 0 15.8000 -110.100 TC 45 15.7777 -110.035 4 7 268
1956151N16256 1956 42 EP MM NOT_NAMED 1956-06-01 21:00:00 TS 15.7830 -110.451 main 702 702 P________PP___ EP021956 15.7849 -110.458 TS 45 0 15.7849 -110.458 TC 45 15.7754 -110.423 4 7 270
1956151N16256 1956 42 EP MM NOT_NAMED 1956-06-02 00:00:00 TS 15.8000 -110.800 45 hurdat_epa main 727 727 O________OO___ hurdat_epa EP021956 15.8000 -110.800 TS 45 0 15.8000 -110.800 TC 45 15.8000 -110.800 4 7 278
1956151N16256 1956 42 EP MM NOT_NAMED 1956-06-02 03:00:00 TS 15.8813 -111.150 main 746 746 P________PP___ EP021956 15.8850 -111.157 TS 45 0 15.8850 -111.157 TC 45 15.8667 -111.119 4 7 286
1956151N16256 1956 42 EP MM NOT_NAMED 1956-06-02 06:00:00 TS 15.9924 -111.486 45 hurdat_epa main 775 775 O________OP___ hurdat_epa EP021956 16.0000 -111.500 TS 45 0 16.0000 -111.500 TC 45 15.9618 -111.428 4 6 289
1956151N16256 1956 42 EP MM NOT_NAMED 1956-06-02 09:00:00 TS 16.0951 -111.778 main 783 775 P________PP___ EP021956 16.0998 -111.785 TS 45 0 16.0998 -111.785 TC 45 16.0760 -111.747 4 6 289
1956151N16256 1956 42 EP MM NOT_NAMED 1956-06-02 12:00:00 TS 16.2000 -112.100 45 hurdat_epa main 781 776 O________OO___ hurdat_epa EP021956 16.2000 -112.100 TS 45 0 16.2000 -112.100 TC 45 16.2000 -112.100 4 7 285
1956151N16256 1956 42 EP MM NOT_NAMED 1956-06-02 15:00:00 TS 16.2919 -112.523 main 783 783 P________PP___ EP021956 16.2925 -112.528 TS 45 0 16.2925 -112.528 TC 45 16.2892 -112.503 4 9 283
1956151N16256 1956 42 EP MM NOT_NAMED 1956-06-02 18:00:00 TS 16.3980 -112.988 45 hurdat_epa main 791 790 O________OP___ hurdat_epa EP021956 16.4000 -113.000 TS 45 0 16.4000 -113.000 TC 45 16.3898 -112.941 4 9 285
1956151N16256 1956 42 EP MM NOT_NAMED 1956-06-02 21:00:00 TS 16.5259 -113.430 main 799 794 P________PP___ EP021956 16.5273 -113.435 TS 45 0 16.5273 -113.435 TC 45 16.5204 -113.409 4 9 289
1956151N16256 1956 42 EP MM NOT_NAMED 1956-06-03 00:00:00 TS 16.7000 -113.900 45 hurdat_epa main 804 800 O________OO___ hurdat_epa EP021956 16.7000 -113.900 TS 45 0 16.7000 -113.900 TC 45 16.7000 -113.900 4 10 292
1956151N16256 1956 42 EP MM NOT_NAMED 1956-06-03 03:00:00 TS 16.9243 -114.436 main 813 810 P________PP___ EP021956 16.9200 -114.443 TS 45 0 16.9200 -114.443 TC 45 16.9415 -114.408 4 12 296
1956151N16256 1956 42 EP MM NOT_NAMED 1956-06-03 06:00:00 TS 17.2067 -114.986 45 hurdat_epa main 823 820 O________OP___ hurdat_epa EP021956 17.2000 -115.000 TS 45 0 17.2000 -115.000 TC 45 17.2336 -114.930 4 12 301
1956151N16256 1956 42 EP MM NOT_NAMED 1956-06-03 09:00:00 TS 17.5399 -115.504 main 832 824 P________PP___ EP021956 17.5351 -115.515 TS 45 0 17.5351 -115.515 TC 45 17.5589 -115.462 4 12 306
1956151N16256 1956 42 EP MM NOT_NAMED 1956-06-03 12:00:00 TS 17.9000 -116.000 45 hurdat_epa main 838 O________OO___ hurdat_epa EP021956 17.9000 -116.000 TS 45 0 17.9000 -116.000 TC 45 17.9000 -116.000 4 12 307

About IBTrACS Database

This database is a web-friendly format of International Best Track Archive for Climate Stewardship (IBTrACS), a global best track data archive curated by NOAA dating back to 1842.

Updated: 2021-10-08